WetterOnline ( https://www.wetteronline.de )

Wetter aktuell Hof

Aktuelles Wetter: Hof/Flughafen (568m)

6-stündlich | Neueste Meldungen
Ortszeit Temperatur Wetter
Di, 27.07. 20:00 21.2° C bedeckt
Di, 27.07. 14:00 21.2° C wolkig
Di, 27.07. 8:00 17.1° C wolkenlos
Di, 27.07. 2:00 17.5° C bedeckt
Mo, 26.07. 20:00 19.4° C bedeckt
Mo, 26.07. 14:00 22.6° C bedeckt
Mo, 26.07. 8:00 18.6° C leicht bewölkt
Mo, 26.07. 2:00 16.6° C wolkenlos
Ortszeit Temperatur Wetter
Mi, 28.07. 1:10 17.9° C bedeckt
Mi, 28.07. 1:00 17.8° C bedeckt
Mi, 28.07. 0:50 17.8° C bedeckt
Mi, 28.07. 0:40 17.8° C bedeckt
Mi, 28.07. 0:30 17.6° C bedeckt
Mi, 28.07. 0:20 17.6° C bedeckt
Mi, 28.07. 0:00 18.2° C bedeckt
Di, 27.07. 23:30 18.4° C bedeckt
Di, 27.07. 23:00 18.4° C bedeckt
Di, 27.07. 22:30 18.8° C bedeckt
Ortszeit Relative Feuchte Sichtweite
Di, 27.07. 20:00 64% 65 km
Di, 27.07. 14:00 58% 60 km
Di, 27.07. 8:00 80% 50 km
Di, 27.07. 2:00 75% 65 km
Mo, 26.07. 20:00 76% >70 km
Mo, 26.07. 14:00 61% 65 km
Mo, 26.07. 8:00 79% 35 km
Mo, 26.07. 2:00 85% 40 km
Ortszeit Relative Feuchte Sichtweite
Mi, 28.07. 1:10 83% -
Mi, 28.07. 1:00 84% 40 km
Mi, 28.07. 0:50 84% -
Mi, 28.07. 0:40 83% -
Mi, 28.07. 0:30 83% 35 km
Mi, 28.07. 0:20 83% -
Mi, 28.07. 0:00 80% 40 km
Di, 27.07. 23:30 79% 45 km
Di, 27.07. 23:00 78% 45 km
Di, 27.07. 22:30 74% 45 km
Ortszeit Niederschlagsmenge Niederschlagsart
Di, 27.07. 20:00 0.0 l/m2 in 12 Std. -
Di, 27.07. 14:00 0.1 l/m2 in 6 Std. -
Di, 27.07. 8:00 0.1 l/m2 in 12 Std. -
Di, 27.07. 2:00 0.1 l/m2 in 6 Std. Regen
Mo, 26.07. 20:00 0.2 l/m2 in 12 Std. Regen
Mo, 26.07. 14:00 0.1 l/m2 in 6 Std. Regen
Mo, 26.07. 8:00 0.0 l/m2 in 12 Std. -
Mo, 26.07. 2:00 0.0 l/m2 in 6 Std. -
Ortszeit Niederschlagsmenge Niederschlagsart
Mi, 28.07. 1:10 keine Meldung -
Mi, 28.07. 1:00 0.1 l/m2 in 1 Std. -
Mi, 28.07. 0:50 keine Meldung -
Mi, 28.07. 0:40 keine Meldung -
Mi, 28.07. 0:30 0.0 l/m2 in 1 Std. -
Mi, 28.07. 0:20 keine Meldung -
Mi, 28.07. 0:00 0.0 l/m2 in 1 Std. -
Di, 27.07. 23:30 0.0 l/m2 in 1 Std. -
Di, 27.07. 23:00 0.0 l/m2 in 1 Std. -
Di, 27.07. 22:30 0.0 l/m2 in 1 Std. -
Ortszeit Stärke Spitze Richtung
km/h Bft. km/h Grad Sektor
Di, 27.07. 20:00 4 1 25 230° SW
Di, 27.07. 14:00 14 3 32 200° S
Di, 27.07. 8:00 7 2 25 210° SW
Di, 27.07. 2:00 15 3 26 230° SW
Mo, 26.07. 20:00 7 2 29 230° SW
Mo, 26.07. 14:00 14 3 29 220° SW
Mo, 26.07. 8:00 4 1 14 220° SW
Mo, 26.07. 2:00 2 1 13 230° SW
Ortszeit Stärke Spitze Richtung
km/h Bft. km/h Grad Sektor
Mi, 28.07. 1:10 4 1 - 160° S
Mi, 28.07. 1:00 6 1 9 150° SO
Mi, 28.07. 0:50 6 1 - 150° SO
Mi, 28.07. 0:40 4 1 - 150° SO
Mi, 28.07. 0:30 6 1 7 130° SO
Mi, 28.07. 0:20 6 1 - 130° SO
Mi, 28.07. 0:00 4 1 7 100° O
Di, 27.07. 23:30 4 1 7 160° S
Di, 27.07. 23:00 4 1 7 160° S
Di, 27.07. 22:30 4 1 4 140° SO
Ortszeit Untergrenze Bedeckung Gattung
total tief tief mittel hoch
Di, 27.07. 20:00 4800 m 8/8 8/8 - - -
Di, 27.07. 14:00 1020 m 7/8 5/8 - - -
Di, 27.07. 8:00 9000 m 0/8 0/8 - - -
Di, 27.07. 2:00 4200 m 8/8 8/8 - - -
Mo, 26.07. 20:00 3000 m 8/8 8/8 - - -
Mo, 26.07. 14:00 2700 m 8/8 8/8 - - -
Mo, 26.07. 8:00 8100 m 7/8 0/8 - - -
Mo, 26.07. 2:00 - 0/8 0/8 - - -
Ortszeit Bedeckungsgrad in Achtel und Wolkenuntergrenze
Mi, 28.07. 1:10 8(4200m) 8(6000m)
Mi, 28.07. 1:00 2(3300m) 8(4200m) 8(6000m)
Mi, 28.07. 0:50 2(3300m) 8(4200m) 8(6000m)
Mi, 28.07. 0:40 4(3300m) 8(4200m) 8(6000m)
Mi, 28.07. 0:30 3(4200m) 8(4500m) 8(6000m)
Mi, 28.07. 0:20 3(4200m) 8(4500m) 8(6000m)
Mi, 28.07. 0:00 1(3600m) 8(4800m) 8(5700m)
Di, 27.07. 23:30 5(3300m) 8(4500m) 8(5100m)
Di, 27.07. 23:00 1(3600m) 8(4200m) 8(6900m)
Di, 27.07. 22:30 1(4200m) 8(4800m) 8(5400m)
Ortszeit Luftdruck NN (hPa) Tendenz (hPa in 3 Std.)
Di, 27.07. 20:00 1012 - 0,8
Di, 27.07. 14:00 1014 + 0,1
Di, 27.07. 8:00 1014 + 0,4
Di, 27.07. 2:00 1014 + 0,4
Mo, 26.07. 20:00 1012 + 0,6
Mo, 26.07. 14:00 1011 0,0
Mo, 26.07. 8:00 1012 + 0,4
Mo, 26.07. 2:00 1012 + 0,3
Ortszeit Luftdruck NN (hPa) Tendenz (hPa in 3 Std.)
Mi, 28.07. 1:10 1012 keine Meldung
Mi, 28.07. 1:00 1012 - 0,6
Mi, 28.07. 0:50 1012 keine Meldung
Mi, 28.07. 0:40 1013 keine Meldung
Mi, 28.07. 0:30 1013 - 0,3
Mi, 28.07. 0:20 1013 keine Meldung
Mi, 28.07. 0:00 1013 + 0,2
Di, 27.07. 23:30 1013 + 0,4
Di, 27.07. 23:00 1013 + 0,5
Di, 27.07. 22:30 1013 + 0,4
Ortszeit Schneehöhe (cm)
Di, 27.07. 20:00 -
Di, 27.07. 14:00 -
Di, 27.07. 8:00 -
Di, 27.07. 2:00 -
Mo, 26.07. 20:00 -
Mo, 26.07. 14:00 -
Mo, 26.07. 8:00 -
Mo, 26.07. 2:00 -
Ortszeit Schneehöhe (cm)
Mi, 28.07. 1:10 -
Mi, 28.07. 1:00 -
Mi, 28.07. 0:50 -
Mi, 28.07. 0:40 -
Mi, 28.07. 0:30 -
Mi, 28.07. 0:20 -
Mi, 28.07. 0:00 -
Di, 27.07. 23:30 -
Di, 27.07. 23:00 -
Di, 27.07. 22:30 -
Link zu dieser Seite / Seite empfehlen

Das Wetter in ...